sensor_id;sensor_type;location;lat;lon;timestamp;temperature;humidity
5278;DHT22;2662;51.194;6.614;2023-12-20T00:02:07;9.10;99.90
5278;DHT22;2662;51.194;6.614;2023-12-20T00:04:34;9.10;99.90
5278;DHT22;2662;51.194;6.614;2023-12-20T00:07:01;9.10;99.90
5278;DHT22;2662;51.194;6.614;2023-12-20T00:09:29;9.10;99.90
5278;DHT22;2662;51.194;6.614;2023-12-20T00:11:56;9.10;99.90
5278;DHT22;2662;51.194;6.614;2023-12-20T00:14:23;9.20;99.90
5278;DHT22;2662;51.194;6.614;2023-12-20T00:16:50;9.20;99.90
5278;DHT22;2662;51.194;6.614;2023-12-20T00:19:16;9.20;99.90
5278;DHT22;2662;51.194;6.614;2023-12-20T00:21:43;9.20;99.90
5278;DHT22;2662;51.194;6.614;2023-12-20T00:24:10;9.20;99.90
5278;DHT22;2662;51.194;6.614;2023-12-20T00:26:38;9.10;99.90
5278;DHT22;2662;51.194;6.614;2023-12-20T00:29:05;9.10;99.90
5278;DHT22;2662;51.194;6.614;2023-12-20T00:31:31;9.10;99.90
5278;DHT22;2662;51.194;6.614;2023-12-20T00:33:58;9.10;99.90
5278;DHT22;2662;51.194;6.614;2023-12-20T00:36:25;9.00;99.90
5278;DHT22;2662;51.194;6.614;2023-12-20T00:38:52;9.00;99.90
5278;DHT22;2662;51.194;6.614;2023-12-20T00:41:18;9.00;99.90
5278;DHT22;2662;51.194;6.614;2023-12-20T00:43:47;8.90;99.90
5278;DHT22;2662;51.194;6.614;2023-12-20T00:46:14;8.90;99.90
5278;DHT22;2662;51.194;6.614;2023-12-20T00:48:41;8.90;99.90
5278;DHT22;2662;51.194;6.614;2023-12-20T00:51:09;8.80;99.90
5278;DHT22;2662;51.194;6.614;2023-12-20T00:53:35;8.70;99.90
5278;DHT22;2662;51.194;6.614;2023-12-20T00:56:02;8.70;99.90
5278;DHT22;2662;51.194;6.614;2023-12-20T00:58:29;8.60;99.90
5278;DHT22;2662;51.194;6.614;2023-12-20T01:00:57;8.50;99.90
5278;DHT22;2662;51.194;6.614;2023-12-20T01:03:24;8.40;99.90
5278;DHT22;2662;51.194;6.614;2023-12-20T01:05:51;8.40;99.90
5278;DHT22;2662;51.194;6.614;2023-12-20T01:08:18;8.40;99.90
5278;DHT22;2662;51.194;6.614;2023-12-20T01:10:44;8.50;99.90
5278;DHT22;2662;51.194;6.614;2023-12-20T01:13:12;8.60;99.90
5278;DHT22;2662;51.194;6.614;2023-12-20T01:15:39;8.60;99.90
5278;DHT22;2662;51.194;6.614;2023-12-20T01:18:07;8.60;99.90
5278;DHT22;2662;51.194;6.614;2023-12-20T01:20:34;8.60;99.90
5278;DHT22;2662;51.194;6.614;2023-12-20T01:23:01;8.50;99.90
5278;DHT22;2662;51.194;6.614;2023-12-20T01:25:28;8.50;99.90
5278;DHT22;2662;51.194;6.614;2023-12-20T01:27:55;8.40;99.90
5278;DHT22;2662;51.194;6.614;2023-12-20T01:30:21;8.40;99.90
5278;DHT22;2662;51.194;6.614;2023-12-20T01:32:48;8.30;99.90
5278;DHT22;2662;51.194;6.614;2023-12-20T01:35:16;8.30;99.90
5278;DHT22;2662;51.194;6.614;2023-12-20T01:37:43;8.30;99.90
5278;DHT22;2662;51.194;6.614;2023-12-20T01:40:10;8.20;99.90
5278;DHT22;2662;51.194;6.614;2023-12-20T01:42:37;8.10;99.90
5278;DHT22;2662;51.194;6.614;2023-12-20T01:45:04;8.00;99.90
5278;DHT22;2662;51.194;6.614;2023-12-20T01:47:31;7.90;99.90
5278;DHT22;2662;51.194;6.614;2023-12-20T01:49:58;7.80;99.90
5278;DHT22;2662;51.194;6.614;2023-12-20T01:52:27;7.80;99.90
5278;DHT22;2662;51.194;6.614;2023-12-20T01:54:54;7.80;99.90
5278;DHT22;2662;51.194;6.614;2023-12-20T01:57:26;7.80;99.90
5278;DHT22;2662;51.194;6.614;2023-12-20T01:59:53;7.70;99.90
5278;DHT22;2662;51.194;6.614;2023-12-20T02:02:20;7.70;99.90
5278;DHT22;2662;51.194;6.614;2023-12-20T02:04:47;7.70;99.90
5278;DHT22;2662;51.194;6.614;2023-12-20T02:07:14;7.60;99.90
5278;DHT22;2662;51.194;6.614;2023-12-20T02:09:42;7.60;99.90
5278;DHT22;2662;51.194;6.614;2023-12-20T02:12:09;7.50;99.90
5278;DHT22;2662;51.194;6.614;2023-12-20T02:14:36;7.40;99.90
5278;DHT22;2662;51.194;6.614;2023-12-20T02:17:03;7.40;99.90
5278;DHT22;2662;51.194;6.614;2023-12-20T02:19:29;7.40;99.90
5278;DHT22;2662;51.194;6.614;2023-12-20T02:22:08;7.40;99.90
5278;DHT22;2662;51.194;6.614;2023-12-20T02:24:35;7.50;99.90
5278;DHT22;2662;51.194;6.614;2023-12-20T02:27:03;7.50;99.90
5278;DHT22;2662;51.194;6.614;2023-12-20T02:29:29;7.60;99.90
5278;DHT22;2662;51.194;6.614;2023-12-20T02:31:57;7.60;99.90
5278;DHT22;2662;51.194;6.614;2023-12-20T02:34:24;7.60;99.90
5278;DHT22;2662;51.194;6.614;2023-12-20T02:36:51;7.60;99.90
5278;DHT22;2662;51.194;6.614;2023-12-20T02:39:19;7.60;99.90
5278;DHT22;2662;51.194;6.614;2023-12-20T02:41:46;7.60;99.90
5278;DHT22;2662;51.194;6.614;2023-12-20T02:44:13;7.70;99.90
5278;DHT22;2662;51.194;6.614;2023-12-20T02:46:40;7.70;99.90
5278;DHT22;2662;51.194;6.614;2023-12-20T02:49:07;7.70;99.90
5278;DHT22;2662;51.194;6.614;2023-12-20T02:51:33;7.70;99.90
5278;DHT22;2662;51.194;6.614;2023-12-20T02:54:03;7.70;99.90
5278;DHT22;2662;51.194;6.614;2023-12-20T02:56:31;7.80;99.90
5278;DHT22;2662;51.194;6.614;2023-12-20T02:58:58;7.60;99.90
5278;DHT22;2662;51.194;6.614;2023-12-20T03:01:25;7.70;99.90
5278;DHT22;2662;51.194;6.614;2023-12-20T03:03:51;7.70;99.90
5278;DHT22;2662;51.194;6.614;2023-12-20T03:06:18;7.60;99.90
5278;DHT22;2662;51.194;6.614;2023-12-20T03:08:45;7.50;99.90
5278;DHT22;2662;51.194;6.614;2023-12-20T03:11:12;7.40;99.90
5278;DHT22;2662;51.194;6.614;2023-12-20T03:13:40;7.30;99.90
5278;DHT22;2662;51.194;6.614;2023-12-20T03:16:08;7.20;99.90
5278;DHT22;2662;51.194;6.614;2023-12-20T03:18:35;7.10;99.90
5278;DHT22;2662;51.194;6.614;2023-12-20T03:21:02;7.00;99.90
5278;DHT22;2662;51.194;6.614;2023-12-20T03:23:29;7.00;99.90
5278;DHT22;2662;51.194;6.614;2023-12-20T03:25:57;6.90;99.90
5278;DHT22;2662;51.194;6.614;2023-12-20T03:28:24;6.90;99.90
5278;DHT22;2662;51.194;6.614;2023-12-20T03:30:53;6.90;99.90
5278;DHT22;2662;51.194;6.614;2023-12-20T03:33:19;6.90;99.90
5278;DHT22;2662;51.194;6.614;2023-12-20T03:35:46;6.80;99.90
5278;DHT22;2662;51.194;6.614;2023-12-20T03:38:13;6.80;99.90
5278;DHT22;2662;51.194;6.614;2023-12-20T03:40:40;6.70;99.90
5278;DHT22;2662;51.194;6.614;2023-12-20T03:43:06;6.70;99.90
5278;DHT22;2662;51.194;6.614;2023-12-20T03:45:33;6.80;99.90
5278;DHT22;2662;51.194;6.614;2023-12-20T03:48:01;6.90;99.90
5278;DHT22;2662;51.194;6.614;2023-12-20T03:50:29;6.90;99.90
5278;DHT22;2662;51.194;6.614;2023-12-20T03:52:55;6.80;99.90
5278;DHT22;2662;51.194;6.614;2023-12-20T03:55:22;6.80;99.90
5278;DHT22;2662;51.194;6.614;2023-12-20T03:57:49;6.90;99.90
5278;DHT22;2662;51.194;6.614;2023-12-20T04:00:16;7.00;99.90
5278;DHT22;2662;51.194;6.614;2023-12-20T04:02:43;6.90;99.90
5278;DHT22;2662;51.194;6.614;2023-12-20T04:05:11;6.90;99.90
5278;DHT22;2662;51.194;6.614;2023-12-20T04:07:38;6.80;99.90
5278;DHT22;2662;51.194;6.614;2023-12-20T04:10:06;6.80;99.90
5278;DHT22;2662;51.194;6.614;2023-12-20T04:12:33;6.80;99.90
5278;DHT22;2662;51.194;6.614;2023-12-20T04:15:00;6.80;99.90
5278;DHT22;2662;51.194;6.614;2023-12-20T04:17:27;6.70;99.90
5278;DHT22;2662;51.194;6.614;2023-12-20T04:19:53;6.70;99.90
5278;DHT22;2662;51.194;6.614;2023-12-20T04:22:22;6.70;99.90
5278;DHT22;2662;51.194;6.614;2023-12-20T04:24:48;6.70;99.90
5278;DHT22;2662;51.194;6.614;2023-12-20T04:27:15;6.60;99.90
5278;DHT22;2662;51.194;6.614;2023-12-20T04:29:42;6.60;99.90
5278;DHT22;2662;51.194;6.614;2023-12-20T04:32:09;6.60;99.90
5278;DHT22;2662;51.194;6.614;2023-12-20T04:34:36;6.70;99.90
5278;DHT22;2662;51.194;6.614;2023-12-20T04:37:03;6.70;99.90
5278;DHT22;2662;51.194;6.614;2023-12-20T04:39:31;6.70;99.90
5278;DHT22;2662;51.194;6.614;2023-12-20T04:41:58;6.70;99.90
5278;DHT22;2662;51.194;6.614;2023-12-20T04:44:25;6.70;99.90
5278;DHT22;2662;51.194;6.614;2023-12-20T04:46:52;6.80;99.90
5278;DHT22;2662;51.194;6.614;2023-12-20T04:49:19;6.80;99.90
5278;DHT22;2662;51.194;6.614;2023-12-20T04:51:45;6.80;99.90
5278;DHT22;2662;51.194;6.614;2023-12-20T04:54:12;6.70;99.90
5278;DHT22;2662;51.194;6.614;2023-12-20T04:56:40;6.70;99.90
5278;DHT22;2662;51.194;6.614;2023-12-20T04:59:07;6.70;99.90
5278;DHT22;2662;51.194;6.614;2023-12-20T05:01:34;6.60;99.90
5278;DHT22;2662;51.194;6.614;2023-12-20T05:04:01;6.60;99.90
5278;DHT22;2662;51.194;6.614;2023-12-20T05:06:27;6.60;99.90
5278;DHT22;2662;51.194;6.614;2023-12-20T05:08:54;6.60;99.90
5278;DHT22;2662;51.194;6.614;2023-12-20T05:11:21;6.60;99.90
5278;DHT22;2662;51.194;6.614;2023-12-20T05:13:49;6.60;99.90
5278;DHT22;2662;51.194;6.614;2023-12-20T05:16:16;6.60;99.90
5278;DHT22;2662;51.194;6.614;2023-12-20T05:18:43;6.60;99.90
5278;DHT22;2662;51.194;6.614;2023-12-20T05:21:10;6.60;99.90
5278;DHT22;2662;51.194;6.614;2023-12-20T05:23:37;6.60;99.90
5278;DHT22;2662;51.194;6.614;2023-12-20T05:26:03;6.70;99.90
5278;DHT22;2662;51.194;6.614;2023-12-20T05:28:30;6.70;99.90
5278;DHT22;2662;51.194;6.614;2023-12-20T05:30:58;6.80;99.90
5278;DHT22;2662;51.194;6.614;2023-12-20T05:33:25;6.80;99.90
5278;DHT22;2662;51.194;6.614;2023-12-20T05:35:52;6.90;99.90
5278;DHT22;2662;51.194;6.614;2023-12-20T05:38:18;6.90;99.90
5278;DHT22;2662;51.194;6.614;2023-12-20T05:40:45;7.00;99.90
5278;DHT22;2662;51.194;6.614;2023-12-20T05:43:12;7.00;99.90
5278;DHT22;2662;51.194;6.614;2023-12-20T05:45:39;7.00;99.90
5278;DHT22;2662;51.194;6.614;2023-12-20T05:48:07;7.00;99.90
5278;DHT22;2662;51.194;6.614;2023-12-20T05:50:34;7.00;99.90
5278;DHT22;2662;51.194;6.614;2023-12-20T05:53:02;7.00;99.90
5278;DHT22;2662;51.194;6.614;2023-12-20T05:55:29;7.00;99.90
5278;DHT22;2662;51.194;6.614;2023-12-20T05:57:55;7.00;99.90
5278;DHT22;2662;51.194;6.614;2023-12-20T06:00:22;7.00;99.90
5278;DHT22;2662;51.194;6.614;2023-12-20T06:02:51;7.10;99.90
5278;DHT22;2662;51.194;6.614;2023-12-20T06:05:19;7.10;99.90
5278;DHT22;2662;51.194;6.614;2023-12-20T06:07:46;7.10;99.90
5278;DHT22;2662;51.194;6.614;2023-12-20T06:10:13;7.10;99.90
5278;DHT22;2662;51.194;6.614;2023-12-20T06:12:40;7.10;99.90
5278;DHT22;2662;51.194;6.614;2023-12-20T06:15:07;7.20;99.90
5278;DHT22;2662;51.194;6.614;2023-12-20T06:17:34;7.20;99.90
5278;DHT22;2662;51.194;6.614;2023-12-20T06:20:01;7.20;99.90
5278;DHT22;2662;51.194;6.614;2023-12-20T06:22:34;7.20;99.90
5278;DHT22;2662;51.194;6.614;2023-12-20T06:25:01;7.20;99.90
5278;DHT22;2662;51.194;6.614;2023-12-20T06:27:28;7.20;99.90
5278;DHT22;2662;51.194;6.614;2023-12-20T06:29:55;7.20;99.90
5278;DHT22;2662;51.194;6.614;2023-12-20T06:32:22;7.20;99.90
5278;DHT22;2662;51.194;6.614;2023-12-20T06:34:49;7.30;99.90
5278;DHT22;2662;51.194;6.614;2023-12-20T06:37:16;7.30;99.90
5278;DHT22;2662;51.194;6.614;2023-12-20T06:39:44;7.30;99.90
5278;DHT22;2662;51.194;6.614;2023-12-20T06:42:12;7.30;99.90
5278;DHT22;2662;51.194;6.614;2023-12-20T06:44:38;7.30;99.90
5278;DHT22;2662;51.194;6.614;2023-12-20T06:47:05;7.30;99.90
5278;DHT22;2662;51.194;6.614;2023-12-20T06:49:32;7.30;99.90
5278;DHT22;2662;51.194;6.614;2023-12-20T06:51:59;7.30;99.90
5278;DHT22;2662;51.194;6.614;2023-12-20T06:54:25;7.30;99.90
5278;DHT22;2662;51.194;6.614;2023-12-20T06:56:53;7.30;99.90
5278;DHT22;2662;51.194;6.614;2023-12-20T06:59:20;7.40;99.90
5278;DHT22;2662;51.194;6.614;2023-12-20T07:01:48;7.40;99.90
5278;DHT22;2662;51.194;6.614;2023-12-20T07:04:15;7.40;99.90
5278;DHT22;2662;51.194;6.614;2023-12-20T07:06:45;7.40;99.90
5278;DHT22;2662;51.194;6.614;2023-12-20T07:09:13;7.40;99.90
5278;DHT22;2662;51.194;6.614;2023-12-20T07:11:40;7.40;99.90
5278;DHT22;2662;51.194;6.614;2023-12-20T07:14:09;7.50;99.90
5278;DHT22;2662;51.194;6.614;2023-12-20T07:16:36;7.50;99.90
5278;DHT22;2662;51.194;6.614;2023-12-20T07:19:02;7.60;99.90
5278;DHT22;2662;51.194;6.614;2023-12-20T07:21:29;7.60;99.90
5278;DHT22;2662;51.194;6.614;2023-12-20T07:23:56;7.60;99.90
5278;DHT22;2662;51.194;6.614;2023-12-20T07:26:23;7.60;99.90
5278;DHT22;2662;51.194;6.614;2023-12-20T07:28:49;7.60;99.90
5278;DHT22;2662;51.194;6.614;2023-12-20T07:31:18;7.60;99.90
5278;DHT22;2662;51.194;6.614;2023-12-20T07:33:45;7.70;99.90
5278;DHT22;2662;51.194;6.614;2023-12-20T07:36:12;7.70;99.90
5278;DHT22;2662;51.194;6.614;2023-12-20T07:38:38;7.70;99.90
5278;DHT22;2662;51.194;6.614;2023-12-20T07:41:09;7.70;99.90
5278;DHT22;2662;51.194;6.614;2023-12-20T07:43:36;7.70;99.90
5278;DHT22;2662;51.194;6.614;2023-12-20T07:46:06;7.70;99.90
5278;DHT22;2662;51.194;6.614;2023-12-20T07:48:34;7.70;99.90
5278;DHT22;2662;51.194;6.614;2023-12-20T07:51:01;7.70;99.90
5278;DHT22;2662;51.194;6.614;2023-12-20T07:53:28;7.70;99.90
5278;DHT22;2662;51.194;6.614;2023-12-20T07:55:55;7.70;99.90
5278;DHT22;2662;51.194;6.614;2023-12-20T07:58:22;7.60;99.90
5278;DHT22;2662;51.194;6.614;2023-12-20T08:00:48;7.70;99.90
5278;DHT22;2662;51.194;6.614;2023-12-20T08:03:15;7.70;99.90
5278;DHT22;2662;51.194;6.614;2023-12-20T08:05:43;7.80;99.90
5278;DHT22;2662;51.194;6.614;2023-12-20T08:08:10;7.80;99.90
5278;DHT22;2662;51.194;6.614;2023-12-20T08:10:37;7.80;99.90
5278;DHT22;2662;51.194;6.614;2023-12-20T08:13:03;7.80;99.90
5278;DHT22;2662;51.194;6.614;2023-12-20T08:15:30;7.70;99.90
5278;DHT22;2662;51.194;6.614;2023-12-20T08:17:57;7.70;99.90
5278;DHT22;2662;51.194;6.614;2023-12-20T08:20:24;7.70;99.90
5278;DHT22;2662;51.194;6.614;2023-12-20T08:22:52;7.70;99.90
5278;DHT22;2662;51.194;6.614;2023-12-20T08:25:18;7.70;99.90
5278;DHT22;2662;51.194;6.614;2023-12-20T08:27:45;7.70;99.90
5278;DHT22;2662;51.194;6.614;2023-12-20T08:30:12;7.70;99.90
5278;DHT22;2662;51.194;6.614;2023-12-20T08:32:39;7.70;99.90
5278;DHT22;2662;51.194;6.614;2023-12-20T08:35:06;7.70;99.90
5278;DHT22;2662;51.194;6.614;2023-12-20T08:37:33;7.70;99.90
5278;DHT22;2662;51.194;6.614;2023-12-20T08:40:01;7.70;99.90
5278;DHT22;2662;51.194;6.614;2023-12-20T08:42:28;7.70;99.90
5278;DHT22;2662;51.194;6.614;2023-12-20T08:44:56;7.80;99.90
5278;DHT22;2662;51.194;6.614;2023-12-20T08:47:24;7.90;99.90
5278;DHT22;2662;51.194;6.614;2023-12-20T08:49:51;7.90;99.90
5278;DHT22;2662;51.194;6.614;2023-12-20T08:52:21;7.90;99.90
5278;DHT22;2662;51.194;6.614;2023-12-20T08:54:48;7.80;99.90
5278;DHT22;2662;51.194;6.614;2023-12-20T08:57:19;7.80;99.90
5278;DHT22;2662;51.194;6.614;2023-12-20T08:59:46;7.90;99.90
5278;DHT22;2662;51.194;6.614;2023-12-20T09:02:13;7.90;99.90
5278;DHT22;2662;51.194;6.614;2023-12-20T09:04:40;7.90;99.90
5278;DHT22;2662;51.194;6.614;2023-12-20T09:07:06;7.80;99.90
5278;DHT22;2662;51.194;6.614;2023-12-20T09:09:33;7.90;99.90
5278;DHT22;2662;51.194;6.614;2023-12-20T09:12:00;8.00;99.90
5278;DHT22;2662;51.194;6.614;2023-12-20T09:14:28;8.00;99.90
5278;DHT22;2662;51.194;6.614;2023-12-20T09:16:55;8.00;99.90
5278;DHT22;2662;51.194;6.614;2023-12-20T09:19:22;8.00;99.90
5278;DHT22;2662;51.194;6.614;2023-12-20T09:21:49;8.10;99.90
5278;DHT22;2662;51.194;6.614;2023-12-20T09:24:15;8.00;99.90
5278;DHT22;2662;51.194;6.614;2023-12-20T09:26:42;8.10;99.90
5278;DHT22;2662;51.194;6.614;2023-12-20T09:29:09;8.10;99.90
5278;DHT22;2662;51.194;6.614;2023-12-20T09:31:42;8.00;99.90
5278;DHT22;2662;51.194;6.614;2023-12-20T09:34:09;8.00;99.90
5278;DHT22;2662;51.194;6.614;2023-12-20T09:36:36;8.10;99.90
5278;DHT22;2662;51.194;6.614;2023-12-20T09:39:04;8.10;99.90
5278;DHT22;2662;51.194;6.614;2023-12-20T09:41:33;8.10;99.90
5278;DHT22;2662;51.194;6.614;2023-12-20T09:44:02;8.20;99.90
5278;DHT22;2662;51.194;6.614;2023-12-20T09:46:32;8.20;99.90
5278;DHT22;2662;51.194;6.614;2023-12-20T09:49:02;8.20;99.90
5278;DHT22;2662;51.194;6.614;2023-12-20T09:51:30;8.30;99.90
5278;DHT22;2662;51.194;6.614;2023-12-20T09:53:59;8.30;99.90
5278;DHT22;2662;51.194;6.614;2023-12-20T09:56:27;8.30;99.90
5278;DHT22;2662;51.194;6.614;2023-12-20T09:58:54;8.40;99.90
5278;DHT22;2662;51.194;6.614;2023-12-20T10:01:21;8.40;99.90
5278;DHT22;2662;51.194;6.614;2023-12-20T10:03:50;8.40;99.90
5278;DHT22;2662;51.194;6.614;2023-12-20T10:06:19;8.50;99.90
5278;DHT22;2662;51.194;6.614;2023-12-20T10:08:46;8.60;99.90
5278;DHT22;2662;51.194;6.614;2023-12-20T10:11:13;8.60;99.90
5278;DHT22;2662;51.194;6.614;2023-12-20T10:13:40;8.60;99.90
5278;DHT22;2662;51.194;6.614;2023-12-20T10:16:07;8.60;99.90
5278;DHT22;2662;51.194;6.614;2023-12-20T10:18:34;8.50;99.90
5278;DHT22;2662;51.194;6.614;2023-12-20T10:21:01;8.50;99.90
5278;DHT22;2662;51.194;6.614;2023-12-20T10:23:30;8.50;99.90
5278;DHT22;2662;51.194;6.614;2023-12-20T10:25:57;8.50;99.90
5278;DHT22;2662;51.194;6.614;2023-12-20T10:28:24;8.50;99.90
5278;DHT22;2662;51.194;6.614;2023-12-20T10:30:53;8.50;99.90
5278;DHT22;2662;51.194;6.614;2023-12-20T10:33:24;8.50;99.90
5278;DHT22;2662;51.194;6.614;2023-12-20T10:35:52;8.50;99.90
5278;DHT22;2662;51.194;6.614;2023-12-20T10:38:19;8.50;99.90
5278;DHT22;2662;51.194;6.614;2023-12-20T10:40:48;8.50;99.90
5278;DHT22;2662;51.194;6.614;2023-12-20T10:43:15;8.60;99.90
5278;DHT22;2662;51.194;6.614;2023-12-20T10:45:42;8.70;99.90
5278;DHT22;2662;51.194;6.614;2023-12-20T10:48:10;8.80;99.90
5278;DHT22;2662;51.194;6.614;2023-12-20T10:50:38;8.80;99.90
5278;DHT22;2662;51.194;6.614;2023-12-20T10:53:06;8.80;99.90
5278;DHT22;2662;51.194;6.614;2023-12-20T10:55:33;8.80;99.90
5278;DHT22;2662;51.194;6.614;2023-12-20T10:58:07;8.90;99.90
5278;DHT22;2662;51.194;6.614;2023-12-20T11:00:36;8.90;99.90
5278;DHT22;2662;51.194;6.614;2023-12-20T11:03:04;8.90;99.90
5278;DHT22;2662;51.194;6.614;2023-12-20T11:05:38;8.90;99.90
5278;DHT22;2662;51.194;6.614;2023-12-20T11:08:09;8.90;99.90
5278;DHT22;2662;51.194;6.614;2023-12-20T11:10:43;8.90;99.90
5278;DHT22;2662;51.194;6.614;2023-12-20T11:13:20;8.90;99.90
5278;DHT22;2662;51.194;6.614;2023-12-20T11:15:49;8.90;99.90
5278;DHT22;2662;51.194;6.614;2023-12-20T11:18:16;8.80;99.90
5278;DHT22;2662;51.194;6.614;2023-12-20T11:20:42;8.70;99.90
5278;DHT22;2662;51.194;6.614;2023-12-20T11:23:10;8.70;99.90
5278;DHT22;2662;51.194;6.614;2023-12-20T11:25:47;8.70;99.90
5278;DHT22;2662;51.194;6.614;2023-12-20T11:28:14;8.60;99.90
5278;DHT22;2662;51.194;6.614;2023-12-20T11:30:47;8.60;99.90
5278;DHT22;2662;51.194;6.614;2023-12-20T11:33:15;8.60;99.90
5278;DHT22;2662;51.194;6.614;2023-12-20T11:35:42;8.60;99.90
5278;DHT22;2662;51.194;6.614;2023-12-20T11:38:09;8.60;99.90
5278;DHT22;2662;51.194;6.614;2023-12-20T11:40:36;8.60;99.90
5278;DHT22;2662;51.194;6.614;2023-12-20T11:43:03;8.60;99.90
5278;DHT22;2662;51.194;6.614;2023-12-20T11:45:31;8.50;99.90
5278;DHT22;2662;51.194;6.614;2023-12-20T11:47:59;8.50;99.90
5278;DHT22;2662;51.194;6.614;2023-12-20T11:50:26;8.40;99.90
5278;DHT22;2662;51.194;6.614;2023-12-20T11:52:54;8.40;99.90
5278;DHT22;2662;51.194;6.614;2023-12-20T11:55:21;8.50;99.90
5278;DHT22;2662;51.194;6.614;2023-12-20T11:57:48;8.60;99.90
5278;DHT22;2662;51.194;6.614;2023-12-20T12:00:15;8.60;99.90
5278;DHT22;2662;51.194;6.614;2023-12-20T12:02:42;8.70;99.90
5278;DHT22;2662;51.194;6.614;2023-12-20T12:05:10;8.80;99.90
5278;DHT22;2662;51.194;6.614;2023-12-20T12:07:37;8.90;99.90
5278;DHT22;2662;51.194;6.614;2023-12-20T12:10:04;8.90;99.90
5278;DHT22;2662;51.194;6.614;2023-12-20T12:12:31;8.90;99.90
5278;DHT22;2662;51.194;6.614;2023-12-20T12:14:59;8.90;99.90
5278;DHT22;2662;51.194;6.614;2023-12-20T12:17:26;8.90;99.90
5278;DHT22;2662;51.194;6.614;2023-12-20T12:20:02;9.00;99.90
5278;DHT22;2662;51.194;6.614;2023-12-20T12:22:31;8.90;99.90
5278;DHT22;2662;51.194;6.614;2023-12-20T12:24:59;9.00;99.90
5278;DHT22;2662;51.194;6.614;2023-12-20T12:27:35;9.00;99.90
5278;DHT22;2662;51.194;6.614;2023-12-20T12:30:05;8.90;99.90
5278;DHT22;2662;51.194;6.614;2023-12-20T12:32:32;8.90;99.90
5278;DHT22;2662;51.194;6.614;2023-12-20T12:34:59;8.90;99.90
5278;DHT22;2662;51.194;6.614;2023-12-20T12:37:26;8.80;99.90
5278;DHT22;2662;51.194;6.614;2023-12-20T12:39:54;8.70;99.90
5278;DHT22;2662;51.194;6.614;2023-12-20T12:42:21;8.70;99.90
5278;DHT22;2662;51.194;6.614;2023-12-20T12:44:51;8.60;99.90
5278;DHT22;2662;51.194;6.614;2023-12-20T12:47:18;8.60;99.90
5278;DHT22;2662;51.194;6.614;2023-12-20T12:49:45;8.70;99.90
5278;DHT22;2662;51.194;6.614;2023-12-20T12:52:11;8.80;99.90
5278;DHT22;2662;51.194;6.614;2023-12-20T12:54:38;8.80;99.90
5278;DHT22;2662;51.194;6.614;2023-12-20T12:57:06;8.90;99.90
5278;DHT22;2662;51.194;6.614;2023-12-20T12:59:33;8.80;99.90
5278;DHT22;2662;51.194;6.614;2023-12-20T13:02:00;8.90;99.90
5278;DHT22;2662;51.194;6.614;2023-12-20T13:04:27;8.90;99.90
5278;DHT22;2662;51.194;6.614;2023-12-20T13:06:54;9.00;99.90
5278;DHT22;2662;51.194;6.614;2023-12-20T13:09:20;9.10;99.90
5278;DHT22;2662;51.194;6.614;2023-12-20T13:11:47;9.10;99.90
5278;DHT22;2662;51.194;6.614;2023-12-20T13:14:15;9.10;99.90
5278;DHT22;2662;51.194;6.614;2023-12-20T13:16:42;9.20;99.90
5278;DHT22;2662;51.194;6.614;2023-12-20T13:19:10;9.10;99.90
5278;DHT22;2662;51.194;6.614;2023-12-20T13:21:37;9.10;99.90
5278;DHT22;2662;51.194;6.614;2023-12-20T13:24:05;9.10;99.90
5278;DHT22;2662;51.194;6.614;2023-12-20T13:26:32;9.10;99.90
5278;DHT22;2662;51.194;6.614;2023-12-20T13:28:59;9.10;99.90
5278;DHT22;2662;51.194;6.614;2023-12-20T13:31:27;9.20;99.90
5278;DHT22;2662;51.194;6.614;2023-12-20T13:33:54;9.10;99.90
5278;DHT22;2662;51.194;6.614;2023-12-20T13:36:20;9.00;99.90
5278;DHT22;2662;51.194;6.614;2023-12-20T13:38:48;9.00;99.90
5278;DHT22;2662;51.194;6.614;2023-12-20T13:41:15;8.90;99.90
5278;DHT22;2662;51.194;6.614;2023-12-20T13:43:42;8.80;99.90
5278;DHT22;2662;51.194;6.614;2023-12-20T13:46:09;8.80;99.90
5278;DHT22;2662;51.194;6.614;2023-12-20T13:48:37;8.70;99.90
5278;DHT22;2662;51.194;6.614;2023-12-20T13:51:04;8.80;99.90
5278;DHT22;2662;51.194;6.614;2023-12-20T13:53:31;8.70;99.90
5278;DHT22;2662;51.194;6.614;2023-12-20T13:55:58;8.70;99.90
5278;DHT22;2662;51.194;6.614;2023-12-20T13:58:25;8.70;99.90
5278;DHT22;2662;51.194;6.614;2023-12-20T14:00:52;8.70;99.90
5278;DHT22;2662;51.194;6.614;2023-12-20T14:03:19;8.70;99.90
5278;DHT22;2662;51.194;6.614;2023-12-20T14:05:47;8.70;99.90
5278;DHT22;2662;51.194;6.614;2023-12-20T14:08:14;8.80;99.90
5278;DHT22;2662;51.194;6.614;2023-12-20T14:10:41;8.70;99.90
5278;DHT22;2662;51.194;6.614;2023-12-20T14:13:07;8.80;99.90
5278;DHT22;2662;51.194;6.614;2023-12-20T14:15:34;8.70;99.90
5278;DHT22;2662;51.194;6.614;2023-12-20T14:18:04;8.70;99.90
5278;DHT22;2662;51.194;6.614;2023-12-20T14:20:32;8.70;99.90
5278;DHT22;2662;51.194;6.614;2023-12-20T14:23:01;8.80;99.90
5278;DHT22;2662;51.194;6.614;2023-12-20T14:25:28;8.80;99.90
5278;DHT22;2662;51.194;6.614;2023-12-20T14:27:55;8.80;99.90
5278;DHT22;2662;51.194;6.614;2023-12-20T14:30:22;8.90;99.90
5278;DHT22;2662;51.194;6.614;2023-12-20T14:32:49;8.90;99.90
5278;DHT22;2662;51.194;6.614;2023-12-20T14:35:16;9.00;99.90
5278;DHT22;2662;51.194;6.614;2023-12-20T14:37:45;9.00;99.90
5278;DHT22;2662;51.194;6.614;2023-12-20T14:40:13;9.00;99.90
5278;DHT22;2662;51.194;6.614;2023-12-20T14:42:42;9.00;99.90
5278;DHT22;2662;51.194;6.614;2023-12-20T14:45:09;9.00;99.90
5278;DHT22;2662;51.194;6.614;2023-12-20T14:47:36;9.00;99.90
5278;DHT22;2662;51.194;6.614;2023-12-20T14:50:03;9.10;99.90
5278;DHT22;2662;51.194;6.614;2023-12-20T14:52:30;9.10;99.90
5278;DHT22;2662;51.194;6.614;2023-12-20T14:54:57;9.10;99.90
5278;DHT22;2662;51.194;6.614;2023-12-20T14:57:25;9.10;99.90
5278;DHT22;2662;51.194;6.614;2023-12-20T14:59:52;9.10;99.90
5278;DHT22;2662;51.194;6.614;2023-12-20T15:02:19;9.10;99.90
5278;DHT22;2662;51.194;6.614;2023-12-20T15:04:46;9.10;99.90
5278;DHT22;2662;51.194;6.614;2023-12-20T15:07:13;9.10;99.90
5278;DHT22;2662;51.194;6.614;2023-12-20T15:09:40;9.10;99.90
5278;DHT22;2662;51.194;6.614;2023-12-20T15:12:11;9.10;99.90
5278;DHT22;2662;51.194;6.614;2023-12-20T15:14:39;9.00;99.90
5278;DHT22;2662;51.194;6.614;2023-12-20T15:17:06;9.00;99.90
5278;DHT22;2662;51.194;6.614;2023-12-20T15:19:33;9.10;99.90
5278;DHT22;2662;51.194;6.614;2023-12-20T15:22:00;9.10;99.90
5278;DHT22;2662;51.194;6.614;2023-12-20T15:24:26;9.10;99.90
5278;DHT22;2662;51.194;6.614;2023-12-20T15:27:02;9.10;99.90
5278;DHT22;2662;51.194;6.614;2023-12-20T15:29:29;9.10;99.90
5278;DHT22;2662;51.194;6.614;2023-12-20T15:31:57;9.10;99.90
5278;DHT22;2662;51.194;6.614;2023-12-20T15:34:24;9.10;99.90
5278;DHT22;2662;51.194;6.614;2023-12-20T15:36:51;9.10;99.90
5278;DHT22;2662;51.194;6.614;2023-12-20T15:39:18;9.10;99.90
5278;DHT22;2662;51.194;6.614;2023-12-20T15:41:44;9.10;99.90
5278;DHT22;2662;51.194;6.614;2023-12-20T15:44:11;9.10;99.90
5278;DHT22;2662;51.194;6.614;2023-12-20T15:46:38;9.10;99.90
5278;DHT22;2662;51.194;6.614;2023-12-20T15:49:06;9.00;99.90
5278;DHT22;2662;51.194;6.614;2023-12-20T15:51:32;9.00;99.90
5278;DHT22;2662;51.194;6.614;2023-12-20T15:54:00;9.00;99.90
5278;DHT22;2662;51.194;6.614;2023-12-20T15:56:31;8.90;99.90
5278;DHT22;2662;51.194;6.614;2023-12-20T15:58:58;9.00;99.90
5278;DHT22;2662;51.194;6.614;2023-12-20T16:01:25;8.90;99.90
5278;DHT22;2662;51.194;6.614;2023-12-20T16:03:52;8.80;99.90
5278;DHT22;2662;51.194;6.614;2023-12-20T16:06:20;8.80;99.90
5278;DHT22;2662;51.194;6.614;2023-12-20T16:08:47;8.80;99.90
5278;DHT22;2662;51.194;6.614;2023-12-20T16:11:16;8.80;99.90
5278;DHT22;2662;51.194;6.614;2023-12-20T16:13:42;8.80;99.90
5278;DHT22;2662;51.194;6.614;2023-12-20T16:16:10;8.90;99.90
5278;DHT22;2662;51.194;6.614;2023-12-20T16:18:36;8.90;99.90